sensor_id;sensor_type;location;lat;lon;timestamp;P1;durP1;ratioP1;P2;durP2;ratioP2
3311;SDS011;1668;49.648;8.570;2023-02-04T00:01:31;10.87;;;2.77;;
3311;SDS011;1668;49.648;8.570;2023-02-04T00:03:58;8.60;;;2.80;;
3311;SDS011;1668;49.648;8.570;2023-02-04T00:06:25;11.67;;;3.00;;
3311;SDS011;1668;49.648;8.570;2023-02-04T00:08:51;10.50;;;2.87;;
3311;SDS011;1668;49.648;8.570;2023-02-04T00:11:18;11.77;;;2.97;;
3311;SDS011;1668;49.648;8.570;2023-02-04T00:13:45;7.00;;;3.20;;
3311;SDS011;1668;49.648;8.570;2023-02-04T00:16:14;8.37;;;2.80;;
3311;SDS011;1668;49.648;8.570;2023-02-04T00:18:41;10.30;;;3.10;;
3311;SDS011;1668;49.648;8.570;2023-02-04T00:21:07;9.20;;;2.67;;
3311;SDS011;1668;49.648;8.570;2023-02-04T00:23:34;9.07;;;2.43;;
3311;SDS011;1668;49.648;8.570;2023-02-04T00:26:01;9.73;;;2.50;;
3311;SDS011;1668;49.648;8.570;2023-02-04T00:28:28;13.23;;;3.30;;
3311;SDS011;1668;49.648;8.570;2023-02-04T00:30:55;13.40;;;2.60;;
3311;SDS011;1668;49.648;8.570;2023-02-04T00:33:23;15.73;;;2.50;;
3311;SDS011;1668;49.648;8.570;2023-02-04T00:35:50;13.47;;;2.93;;
3311;SDS011;1668;49.648;8.570;2023-02-04T00:38:17;10.70;;;3.13;;
3311;SDS011;1668;49.648;8.570;2023-02-04T00:40:44;12.70;;;3.70;;
3311;SDS011;1668;49.648;8.570;2023-02-04T00:43:11;17.20;;;3.50;;
3311;SDS011;1668;49.648;8.570;2023-02-04T00:45:38;12.60;;;3.50;;
3311;SDS011;1668;49.648;8.570;2023-02-04T00:48:04;13.50;;;3.50;;
3311;SDS011;1668;49.648;8.570;2023-02-04T00:50:33;10.70;;;3.03;;
3311;SDS011;1668;49.648;8.570;2023-02-04T00:53:03;13.10;;;3.30;;
3311;SDS011;1668;49.648;8.570;2023-02-04T00:55:30;12.23;;;3.20;;
3311;SDS011;1668;49.648;8.570;2023-02-04T00:57:57;10.00;;;2.70;;
3311;SDS011;1668;49.648;8.570;2023-02-04T01:00:24;10.20;;;3.00;;
3311;SDS011;1668;49.648;8.570;2023-02-04T01:02:51;9.27;;;2.80;;
3311;SDS011;1668;49.648;8.570;2023-02-04T01:05:18;9.87;;;2.77;;
3311;SDS011;1668;49.648;8.570;2023-02-04T01:07:46;9.10;;;2.80;;
3311;SDS011;1668;49.648;8.570;2023-02-04T01:10:13;8.20;;;2.60;;
3311;SDS011;1668;49.648;8.570;2023-02-04T01:12:41;12.17;;;3.13;;
3311;SDS011;1668;49.648;8.570;2023-02-04T01:15:08;5.63;;;2.33;;
3311;SDS011;1668;49.648;8.570;2023-02-04T01:17:35;9.10;;;2.70;;
3311;SDS011;1668;49.648;8.570;2023-02-04T01:20:02;9.83;;;2.77;;
3311;SDS011;1668;49.648;8.570;2023-02-04T01:22:29;14.80;;;3.10;;
3311;SDS011;1668;49.648;8.570;2023-02-04T01:24:57;13.43;;;3.20;;
3311;SDS011;1668;49.648;8.570;2023-02-04T01:27:24;8.70;;;3.07;;
3311;SDS011;1668;49.648;8.570;2023-02-04T01:29:51;12.67;;;3.27;;
3311;SDS011;1668;49.648;8.570;2023-02-04T01:32:18;14.43;;;2.80;;
3311;SDS011;1668;49.648;8.570;2023-02-04T01:34:44;7.07;;;2.10;;
3311;SDS011;1668;49.648;8.570;2023-02-04T01:37:11;5.83;;;2.50;;
3311;SDS011;1668;49.648;8.570;2023-02-04T01:39:38;7.77;;;2.53;;
3311;SDS011;1668;49.648;8.570;2023-02-04T01:42:07;12.90;;;2.93;;
3311;SDS011;1668;49.648;8.570;2023-02-04T01:44:33;6.20;;;2.50;;
3311;SDS011;1668;49.648;8.570;2023-02-04T01:47:01;17.77;;;3.37;;
3311;SDS011;1668;49.648;8.570;2023-02-04T01:49:28;12.00;;;3.20;;
3311;SDS011;1668;49.648;8.570;2023-02-04T01:51:55;12.27;;;2.50;;
3311;SDS011;1668;49.648;8.570;2023-02-04T01:54:22;10.90;;;3.40;;
3311;SDS011;1668;49.648;8.570;2023-02-04T01:56:50;9.03;;;2.70;;
3311;SDS011;1668;49.648;8.570;2023-02-04T01:59:20;13.53;;;2.70;;
3311;SDS011;1668;49.648;8.570;2023-02-04T02:01:49;10.20;;;2.50;;
3311;SDS011;1668;49.648;8.570;2023-02-04T02:04:17;8.67;;;2.60;;
3311;SDS011;1668;49.648;8.570;2023-02-04T02:06:48;11.70;;;2.87;;
3311;SDS011;1668;49.648;8.570;2023-02-04T02:09:17;6.87;;;2.70;;
3311;SDS011;1668;49.648;8.570;2023-02-04T02:11:44;11.80;;;2.43;;
3311;SDS011;1668;49.648;8.570;2023-02-04T02:14:11;8.93;;;2.57;;
3311;SDS011;1668;49.648;8.570;2023-02-04T02:16:39;12.47;;;2.70;;
3311;SDS011;1668;49.648;8.570;2023-02-04T02:19:06;13.93;;;3.00;;
3311;SDS011;1668;49.648;8.570;2023-02-04T02:21:37;12.13;;;2.50;;
3311;SDS011;1668;49.648;8.570;2023-02-04T02:24:22;10.83;;;2.70;;
3311;SDS011;1668;49.648;8.570;2023-02-04T02:26:51;9.23;;;2.87;;
3311;SDS011;1668;49.648;8.570;2023-02-04T02:29:18;8.90;;;3.23;;
3311;SDS011;1668;49.648;8.570;2023-02-04T02:31:45;15.13;;;3.87;;
3311;SDS011;1668;49.648;8.570;2023-02-04T02:34:12;11.40;;;3.50;;
3311;SDS011;1668;49.648;8.570;2023-02-04T02:36:39;10.80;;;3.40;;
3311;SDS011;1668;49.648;8.570;2023-02-04T02:39:06;7.40;;;2.70;;
3311;SDS011;1668;49.648;8.570;2023-02-04T02:41:35;10.73;;;3.30;;
3311;SDS011;1668;49.648;8.570;2023-02-04T02:44:02;16.77;;;3.63;;
3311;SDS011;1668;49.648;8.570;2023-02-04T02:46:29;7.87;;;3.43;;
3311;SDS011;1668;49.648;8.570;2023-02-04T02:48:56;12.40;;;3.83;;
3311;SDS011;1668;49.648;8.570;2023-02-04T02:51:23;14.40;;;3.67;;
3311;SDS011;1668;49.648;8.570;2023-02-04T02:53:50;10.20;;;3.53;;
3311;SDS011;1668;49.648;8.570;2023-02-04T02:56:17;11.63;;;3.50;;
3311;SDS011;1668;49.648;8.570;2023-02-04T02:58:46;12.70;;;3.80;;
3311;SDS011;1668;49.648;8.570;2023-02-04T03:01:13;12.43;;;3.77;;
3311;SDS011;1668;49.648;8.570;2023-02-04T03:03:40;11.13;;;3.13;;
3311;SDS011;1668;49.648;8.570;2023-02-04T03:06:10;14.03;;;3.47;;
3311;SDS011;1668;49.648;8.570;2023-02-04T03:08:41;12.40;;;3.60;;
3311;SDS011;1668;49.648;8.570;2023-02-04T03:11:09;12.70;;;3.20;;
3311;SDS011;1668;49.648;8.570;2023-02-04T03:13:36;14.57;;;3.93;;
3311;SDS011;1668;49.648;8.570;2023-02-04T03:16:05;16.00;;;4.53;;
3311;SDS011;1668;49.648;8.570;2023-02-04T03:18:33;9.90;;;3.40;;
3311;SDS011;1668;49.648;8.570;2023-02-04T03:21:01;11.93;;;3.63;;
3311;SDS011;1668;49.648;8.570;2023-02-04T03:23:31;8.00;;;3.40;;
3311;SDS011;1668;49.648;8.570;2023-02-04T03:25:58;13.20;;;3.50;;
3311;SDS011;1668;49.648;8.570;2023-02-04T03:28:26;12.73;;;3.60;;
3311;SDS011;1668;49.648;8.570;2023-02-04T03:30:54;11.20;;;3.57;;
3311;SDS011;1668;49.648;8.570;2023-02-04T03:33:22;11.60;;;3.73;;
3311;SDS011;1668;49.648;8.570;2023-02-04T03:35:50;13.80;;;3.77;;
3311;SDS011;1668;49.648;8.570;2023-02-04T03:38:17;12.73;;;4.10;;
3311;SDS011;1668;49.648;8.570;2023-02-04T03:40:44;13.17;;;4.00;;
3311;SDS011;1668;49.648;8.570;2023-02-04T03:43:11;12.30;;;3.80;;
3311;SDS011;1668;49.648;8.570;2023-02-04T03:45:38;15.13;;;3.73;;
3311;SDS011;1668;49.648;8.570;2023-02-04T03:48:05;13.10;;;3.73;;
3311;SDS011;1668;49.648;8.570;2023-02-04T03:50:33;15.87;;;4.07;;
3311;SDS011;1668;49.648;8.570;2023-02-04T03:53:00;12.93;;;3.83;;
3311;SDS011;1668;49.648;8.570;2023-02-04T03:55:27;17.93;;;4.87;;
3311;SDS011;1668;49.648;8.570;2023-02-04T03:57:56;12.83;;;4.00;;
3311;SDS011;1668;49.648;8.570;2023-02-04T04:00:23;21.03;;;4.17;;
3311;SDS011;1668;49.648;8.570;2023-02-04T04:02:50;13.40;;;4.03;;
3311;SDS011;1668;49.648;8.570;2023-02-04T04:05:17;12.60;;;4.03;;
3311;SDS011;1668;49.648;8.570;2023-02-04T04:07:45;14.57;;;4.30;;
3311;SDS011;1668;49.648;8.570;2023-02-04T04:10:12;10.73;;;3.67;;
3311;SDS011;1668;49.648;8.570;2023-02-04T04:12:39;13.90;;;3.83;;
3311;SDS011;1668;49.648;8.570;2023-02-04T04:15:06;10.53;;;3.53;;
3311;SDS011;1668;49.648;8.570;2023-02-04T04:17:33;10.43;;;3.50;;
3311;SDS011;1668;49.648;8.570;2023-02-04T04:20:00;12.80;;;4.20;;
3311;SDS011;1668;49.648;8.570;2023-02-04T04:22:27;7.90;;;2.77;;
3311;SDS011;1668;49.648;8.570;2023-02-04T04:24:55;10.87;;;4.10;;
3311;SDS011;1668;49.648;8.570;2023-02-04T04:27:22;15.23;;;3.90;;
3311;SDS011;1668;49.648;8.570;2023-02-04T04:29:50;12.87;;;4.03;;
3311;SDS011;1668;49.648;8.570;2023-02-04T04:32:17;14.20;;;4.20;;
3311;SDS011;1668;49.648;8.570;2023-02-04T04:34:43;19.43;;;4.10;;
3311;SDS011;1668;49.648;8.570;2023-02-04T04:37:10;11.80;;;4.03;;
3311;SDS011;1668;49.648;8.570;2023-02-04T04:39:37;13.70;;;3.80;;
3311;SDS011;1668;49.648;8.570;2023-02-04T04:42:05;10.30;;;4.37;;
3311;SDS011;1668;49.648;8.570;2023-02-04T04:44:32;16.93;;;4.50;;
3311;SDS011;1668;49.648;8.570;2023-02-04T04:46:59;12.50;;;3.43;;
3311;SDS011;1668;49.648;8.570;2023-02-04T04:49:27;9.30;;;3.40;;
3311;SDS011;1668;49.648;8.570;2023-02-04T04:51:54;10.33;;;3.50;;
3311;SDS011;1668;49.648;8.570;2023-02-04T04:54:21;14.23;;;3.00;;
3311;SDS011;1668;49.648;8.570;2023-02-04T04:56:47;13.80;;;3.93;;
3311;SDS011;1668;49.648;8.570;2023-02-04T04:59:15;13.93;;;3.97;;
3311;SDS011;1668;49.648;8.570;2023-02-04T05:01:42;12.53;;;3.20;;
3311;SDS011;1668;49.648;8.570;2023-02-04T05:04:09;13.30;;;3.93;;
3311;SDS011;1668;49.648;8.570;2023-02-04T05:06:36;16.97;;;4.87;;
3311;SDS011;1668;49.648;8.570;2023-02-04T05:09:03;11.17;;;3.67;;
3311;SDS011;1668;49.648;8.570;2023-02-04T05:11:30;13.33;;;3.63;;
3311;SDS011;1668;49.648;8.570;2023-02-04T05:13:56;13.43;;;3.63;;
3311;SDS011;1668;49.648;8.570;2023-02-04T05:16:25;10.37;;;3.93;;
3311;SDS011;1668;49.648;8.570;2023-02-04T05:18:52;11.50;;;3.77;;
3311;SDS011;1668;49.648;8.570;2023-02-04T05:21:19;15.37;;;3.73;;
3311;SDS011;1668;49.648;8.570;2023-02-04T05:23:46;13.93;;;3.50;;
3311;SDS011;1668;49.648;8.570;2023-02-04T05:26:12;10.67;;;3.77;;
3311;SDS011;1668;49.648;8.570;2023-02-04T05:28:39;11.80;;;3.30;;
3311;SDS011;1668;49.648;8.570;2023-02-04T05:31:06;12.10;;;3.83;;
3311;SDS011;1668;49.648;8.570;2023-02-04T05:33:34;13.33;;;2.97;;
3311;SDS011;1668;49.648;8.570;2023-02-04T05:36:01;13.00;;;3.50;;
3311;SDS011;1668;49.648;8.570;2023-02-04T05:38:28;9.63;;;3.50;;
3311;SDS011;1668;49.648;8.570;2023-02-04T05:40:55;11.50;;;3.97;;
3311;SDS011;1668;49.648;8.570;2023-02-04T05:43:22;15.23;;;3.80;;
3311;SDS011;1668;49.648;8.570;2023-02-04T05:45:49;13.53;;;3.57;;
3311;SDS011;1668;49.648;8.570;2023-02-04T05:48:16;15.80;;;3.77;;
3311;SDS011;1668;49.648;8.570;2023-02-04T05:50:44;14.27;;;4.30;;
3311;SDS011;1668;49.648;8.570;2023-02-04T05:53:11;17.87;;;3.60;;
3311;SDS011;1668;49.648;8.570;2023-02-04T05:55:38;11.60;;;2.90;;
3311;SDS011;1668;49.648;8.570;2023-02-04T05:58:04;8.20;;;3.27;;
3311;SDS011;1668;49.648;8.570;2023-02-04T06:00:31;17.17;;;3.83;;
3311;SDS011;1668;49.648;8.570;2023-02-04T06:02:58;13.07;;;3.53;;
3311;SDS011;1668;49.648;8.570;2023-02-04T06:05:25;11.80;;;3.57;;
3311;SDS011;1668;49.648;8.570;2023-02-04T06:07:53;11.00;;;3.30;;
3311;SDS011;1668;49.648;8.570;2023-02-04T06:10:20;10.93;;;3.60;;
3311;SDS011;1668;49.648;8.570;2023-02-04T06:12:47;15.10;;;4.43;;
3311;SDS011;1668;49.648;8.570;2023-02-04T06:15:14;15.80;;;4.60;;
3311;SDS011;1668;49.648;8.570;2023-02-04T06:17:41;11.60;;;3.73;;
3311;SDS011;1668;49.648;8.570;2023-02-04T06:20:09;14.80;;;4.50;;
3311;SDS011;1668;49.648;8.570;2023-02-04T06:22:38;11.60;;;4.20;;
3311;SDS011;1668;49.648;8.570;2023-02-04T06:25:07;14.70;;;5.23;;
3311;SDS011;1668;49.648;8.570;2023-02-04T06:27:34;17.27;;;4.70;;
3311;SDS011;1668;49.648;8.570;2023-02-04T06:30:01;18.40;;;5.30;;
3311;SDS011;1668;49.648;8.570;2023-02-04T06:32:29;13.90;;;4.40;;
3311;SDS011;1668;49.648;8.570;2023-02-04T06:34:56;19.17;;;5.23;;
3311;SDS011;1668;49.648;8.570;2023-02-04T06:37:23;16.87;;;5.67;;
3311;SDS011;1668;49.648;8.570;2023-02-04T06:39:50;9.77;;;4.03;;
3311;SDS011;1668;49.648;8.570;2023-02-04T06:42:20;17.97;;;4.87;;
3311;SDS011;1668;49.648;8.570;2023-02-04T06:44:46;10.00;;;3.97;;
3311;SDS011;1668;49.648;8.570;2023-02-04T06:47:13;14.87;;;4.33;;
3311;SDS011;1668;49.648;8.570;2023-02-04T06:49:40;14.00;;;5.43;;
3311;SDS011;1668;49.648;8.570;2023-02-04T06:52:07;19.20;;;4.80;;
3311;SDS011;1668;49.648;8.570;2023-02-04T06:54:35;14.67;;;4.47;;
3311;SDS011;1668;49.648;8.570;2023-02-04T06:57:02;13.80;;;4.70;;
3311;SDS011;1668;49.648;8.570;2023-02-04T06:59:33;25.27;;;5.07;;
3311;SDS011;1668;49.648;8.570;2023-02-04T07:02:01;18.83;;;4.50;;
3311;SDS011;1668;49.648;8.570;2023-02-04T07:04:28;15.53;;;5.10;;
3311;SDS011;1668;49.648;8.570;2023-02-04T07:06:55;14.67;;;4.53;;
3311;SDS011;1668;49.648;8.570;2023-02-04T07:09:22;15.87;;;5.00;;
3311;SDS011;1668;49.648;8.570;2023-02-04T07:11:49;11.47;;;4.40;;
3311;SDS011;1668;49.648;8.570;2023-02-04T07:14:16;17.10;;;4.40;;
3311;SDS011;1668;49.648;8.570;2023-02-04T07:16:45;15.83;;;4.23;;
3311;SDS011;1668;49.648;8.570;2023-02-04T07:19:11;16.00;;;4.40;;
3311;SDS011;1668;49.648;8.570;2023-02-04T07:21:38;16.40;;;4.80;;
3311;SDS011;1668;49.648;8.570;2023-02-04T07:24:05;15.57;;;5.40;;
3311;SDS011;1668;49.648;8.570;2023-02-04T07:26:32;13.50;;;4.90;;
3311;SDS011;1668;49.648;8.570;2023-02-04T07:28:59;22.77;;;5.40;;
3311;SDS011;1668;49.648;8.570;2023-02-04T07:31:26;20.60;;;6.10;;
3311;SDS011;1668;49.648;8.570;2023-02-04T07:33:54;18.17;;;5.70;;
3311;SDS011;1668;49.648;8.570;2023-02-04T07:36:21;15.77;;;4.70;;
3311;SDS011;1668;49.648;8.570;2023-02-04T07:38:48;15.60;;;4.53;;
3311;SDS011;1668;49.648;8.570;2023-02-04T07:41:15;12.83;;;4.13;;
3311;SDS011;1668;49.648;8.570;2023-02-04T07:43:42;15.83;;;5.07;;
3311;SDS011;1668;49.648;8.570;2023-02-04T07:46:08;23.33;;;4.67;;
3311;SDS011;1668;49.648;8.570;2023-02-04T07:48:35;15.93;;;4.27;;
3311;SDS011;1668;49.648;8.570;2023-02-04T07:51:04;16.80;;;4.80;;
3311;SDS011;1668;49.648;8.570;2023-02-04T07:53:31;16.40;;;4.80;;
3311;SDS011;1668;49.648;8.570;2023-02-04T07:55:57;13.80;;;6.03;;
3311;SDS011;1668;49.648;8.570;2023-02-04T07:58:24;25.97;;;6.27;;
3311;SDS011;1668;49.648;8.570;2023-02-04T08:00:51;25.40;;;9.10;;
3311;SDS011;1668;49.648;8.570;2023-02-04T08:03:18;15.00;;;6.07;;
3311;SDS011;1668;49.648;8.570;2023-02-04T08:05:45;18.73;;;6.10;;
3311;SDS011;1668;49.648;8.570;2023-02-04T08:08:13;15.43;;;5.70;;
3311;SDS011;1668;49.648;8.570;2023-02-04T08:10:40;19.43;;;5.10;;
3311;SDS011;1668;49.648;8.570;2023-02-04T08:13:07;19.13;;;5.07;;
3311;SDS011;1668;49.648;8.570;2023-02-04T08:15:34;14.13;;;5.30;;
3311;SDS011;1668;49.648;8.570;2023-02-04T08:18:01;19.17;;;5.60;;
3311;SDS011;1668;49.648;8.570;2023-02-04T08:20:28;21.77;;;6.07;;
3311;SDS011;1668;49.648;8.570;2023-02-04T08:22:55;15.43;;;5.27;;
3311;SDS011;1668;49.648;8.570;2023-02-04T08:25:23;19.63;;;5.07;;
3311;SDS011;1668;49.648;8.570;2023-02-04T08:27:50;16.13;;;5.50;;
3311;SDS011;1668;49.648;8.570;2023-02-04T08:30:17;17.13;;;5.67;;
3311;SDS011;1668;49.648;8.570;2023-02-04T08:32:44;12.00;;;4.97;;
3311;SDS011;1668;49.648;8.570;2023-02-04T08:35:11;18.40;;;5.30;;
3311;SDS011;1668;49.648;8.570;2023-02-04T08:37:38;21.20;;;5.57;;
3311;SDS011;1668;49.648;8.570;2023-02-04T08:40:05;20.37;;;4.40;;
3311;SDS011;1668;49.648;8.570;2023-02-04T08:42:34;19.07;;;4.87;;
3311;SDS011;1668;49.648;8.570;2023-02-04T08:45:00;16.27;;;4.63;;
3311;SDS011;1668;49.648;8.570;2023-02-04T08:47:28;17.00;;;4.70;;
3311;SDS011;1668;49.648;8.570;2023-02-04T08:49:55;12.27;;;4.63;;
3311;SDS011;1668;49.648;8.570;2023-02-04T08:52:22;16.20;;;4.87;;
3311;SDS011;1668;49.648;8.570;2023-02-04T08:54:48;17.83;;;4.53;;
3311;SDS011;1668;49.648;8.570;2023-02-04T08:57:15;21.27;;;4.17;;
3311;SDS011;1668;49.648;8.570;2023-02-04T08:59:43;14.63;;;3.97;;
3311;SDS011;1668;49.648;8.570;2023-02-04T09:02:10;20.87;;;12.03;;
3311;SDS011;1668;49.648;8.570;2023-02-04T09:04:37;22.57;;;6.43;;
3311;SDS011;1668;49.648;8.570;2023-02-04T09:07:04;22.03;;;5.57;;
3311;SDS011;1668;49.648;8.570;2023-02-04T09:09:31;15.20;;;4.43;;
3311;SDS011;1668;49.648;8.570;2023-02-04T09:11:57;12.93;;;4.50;;
3311;SDS011;1668;49.648;8.570;2023-02-04T09:14:25;13.47;;;3.73;;
3311;SDS011;1668;49.648;8.570;2023-02-04T09:16:54;14.63;;;3.80;;
3311;SDS011;1668;49.648;8.570;2023-02-04T09:19:21;16.20;;;4.07;;
3311;SDS011;1668;49.648;8.570;2023-02-04T09:21:49;18.23;;;4.70;;
3311;SDS011;1668;49.648;8.570;2023-02-04T09:24:16;15.20;;;3.93;;
3311;SDS011;1668;49.648;8.570;2023-02-04T09:26:43;18.10;;;3.80;;
3311;SDS011;1668;49.648;8.570;2023-02-04T09:29:10;16.90;;;4.83;;
3311;SDS011;1668;49.648;8.570;2023-02-04T09:31:37;19.00;;;4.60;;
3311;SDS011;1668;49.648;8.570;2023-02-04T09:34:06;20.37;;;5.00;;
3311;SDS011;1668;49.648;8.570;2023-02-04T09:36:33;18.03;;;4.40;;
3311;SDS011;1668;49.648;8.570;2023-02-04T09:39:02;19.50;;;4.70;;
3311;SDS011;1668;49.648;8.570;2023-02-04T09:41:31;20.87;;;5.23;;
3311;SDS011;1668;49.648;8.570;2023-02-04T09:43:58;16.33;;;4.47;;
3311;SDS011;1668;49.648;8.570;2023-02-04T09:46:26;19.00;;;5.27;;
3311;SDS011;1668;49.648;8.570;2023-02-04T09:48:54;16.73;;;4.40;;
3311;SDS011;1668;49.648;8.570;2023-02-04T09:51:25;12.87;;;3.63;;
3311;SDS011;1668;49.648;8.570;2023-02-04T09:53:54;19.33;;;4.70;;
3311;SDS011;1668;49.648;8.570;2023-02-04T09:56:27;16.40;;;5.17;;
3311;SDS011;1668;49.648;8.570;2023-02-04T09:58:54;15.97;;;3.40;;
3311;SDS011;1668;49.648;8.570;2023-02-04T10:01:21;14.37;;;4.07;;
3311;SDS011;1668;49.648;8.570;2023-02-04T10:03:47;17.43;;;3.87;;
3311;SDS011;1668;49.648;8.570;2023-02-04T10:06:16;14.33;;;4.17;;
3311;SDS011;1668;49.648;8.570;2023-02-04T10:08:46;17.40;;;4.10;;
3311;SDS011;1668;49.648;8.570;2023-02-04T10:11:14;20.80;;;4.43;;
3311;SDS011;1668;49.648;8.570;2023-02-04T10:13:44;15.77;;;3.73;;
3311;SDS011;1668;49.648;8.570;2023-02-04T10:16:16;17.67;;;3.50;;
3311;SDS011;1668;49.648;8.570;2023-02-04T10:18:45;18.33;;;3.70;;
3311;SDS011;1668;49.648;8.570;2023-02-04T10:21:16;15.83;;;4.23;;
3311;SDS011;1668;49.648;8.570;2023-02-04T10:23:47;11.20;;;3.20;;
3311;SDS011;1668;49.648;8.570;2023-02-04T10:26:16;21.90;;;5.07;;
3311;SDS011;1668;49.648;8.570;2023-02-04T10:28:56;13.97;;;3.70;;
3311;SDS011;1668;49.648;8.570;2023-02-04T10:31:28;19.23;;;3.60;;
3311;SDS011;1668;49.648;8.570;2023-02-04T10:34:04;15.37;;;3.87;;
3311;SDS011;1668;49.648;8.570;2023-02-04T10:36:32;14.00;;;4.07;;
3311;SDS011;1668;49.648;8.570;2023-02-04T10:39:01;21.50;;;4.50;;
3311;SDS011;1668;49.648;8.570;2023-02-04T10:41:28;16.13;;;3.47;;
3311;SDS011;1668;49.648;8.570;2023-02-04T10:44:02;16.33;;;3.63;;
3311;SDS011;1668;49.648;8.570;2023-02-04T10:46:30;14.20;;;3.20;;
3311;SDS011;1668;49.648;8.570;2023-02-04T10:48:57;14.80;;;3.73;;
3311;SDS011;1668;49.648;8.570;2023-02-04T10:51:24;7.50;;;3.10;;
3311;SDS011;1668;49.648;8.570;2023-02-04T10:53:51;13.43;;;3.20;;
3311;SDS011;1668;49.648;8.570;2023-02-04T10:56:37;7.90;;;2.13;;
3311;SDS011;1668;49.648;8.570;2023-02-04T10:59:04;6.73;;;2.20;;
3311;SDS011;1668;49.648;8.570;2023-02-04T11:01:33;7.80;;;2.20;;
3311;SDS011;1668;49.648;8.570;2023-02-04T11:04:00;11.37;;;2.20;;
3311;SDS011;1668;49.648;8.570;2023-02-04T11:06:27;11.53;;;2.13;;
3311;SDS011;1668;49.648;8.570;2023-02-04T11:08:54;12.43;;;2.53;;
3311;SDS011;1668;49.648;8.570;2023-02-04T11:11:24;8.23;;;2.50;;
3311;SDS011;1668;49.648;8.570;2023-02-04T11:13:59;12.80;;;3.00;;
3311;SDS011;1668;49.648;8.570;2023-02-04T11:16:28;8.30;;;2.33;;
3311;SDS011;1668;49.648;8.570;2023-02-04T11:18:59;5.43;;;1.93;;
3311;SDS011;1668;49.648;8.570;2023-02-04T11:21:39;8.43;;;1.93;;
3311;SDS011;1668;49.648;8.570;2023-02-04T11:24:19;7.83;;;2.23;;
3311;SDS011;1668;49.648;8.570;2023-02-04T11:26:49;7.73;;;2.73;;
3311;SDS011;1668;49.648;8.570;2023-02-04T11:29:27;10.83;;;2.57;;
3311;SDS011;1668;49.648;8.570;2023-02-04T11:32:02;7.97;;;2.30;;
3311;SDS011;1668;49.648;8.570;2023-02-04T11:34:43;10.07;;;2.60;;
3311;SDS011;1668;49.648;8.570;2023-02-04T11:37:14;7.50;;;2.33;;
3311;SDS011;1668;49.648;8.570;2023-02-04T11:39:54;12.83;;;3.00;;
3311;SDS011;1668;49.648;8.570;2023-02-04T11:42:25;9.60;;;2.23;;
3311;SDS011;1668;49.648;8.570;2023-02-04T11:44:58;9.80;;;2.03;;
3311;SDS011;1668;49.648;8.570;2023-02-04T11:47:33;8.40;;;2.27;;
3311;SDS011;1668;49.648;8.570;2023-02-04T11:50:02;7.77;;;2.37;;
3311;SDS011;1668;49.648;8.570;2023-02-04T11:52:36;13.27;;;4.17;;
3311;SDS011;1668;49.648;8.570;2023-02-04T11:55:03;14.03;;;4.90;;
3311;SDS011;1668;49.648;8.570;2023-02-04T11:57:36;10.20;;;3.30;;
3311;SDS011;1668;49.648;8.570;2023-02-04T12:00:11;11.33;;;2.80;;
3311;SDS011;1668;49.648;8.570;2023-02-04T12:02:40;7.87;;;3.57;;
3311;SDS011;1668;49.648;8.570;2023-02-04T12:05:09;7.80;;;2.47;;
3311;SDS011;1668;49.648;8.570;2023-02-04T12:07:37;12.93;;;3.57;;
3311;SDS011;1668;49.648;8.570;2023-02-04T12:10:11;10.27;;;4.70;;
3311;SDS011;1668;49.648;8.570;2023-02-04T12:12:41;8.77;;;2.77;;
3311;SDS011;1668;49.648;8.570;2023-02-04T12:15:14;11.87;;;3.03;;
3311;SDS011;1668;49.648;8.570;2023-02-04T12:17:58;20.10;;;3.00;;
3311;SDS011;1668;49.648;8.570;2023-02-04T12:20:26;10.23;;;3.07;;
3311;SDS011;1668;49.648;8.570;2023-02-04T12:22:53;9.93;;;2.70;;
3311;SDS011;1668;49.648;8.570;2023-02-04T12:25:20;11.00;;;3.43;;
3311;SDS011;1668;49.648;8.570;2023-02-04T12:27:47;9.50;;;3.10;;
3311;SDS011;1668;49.648;8.570;2023-02-04T12:30:16;11.30;;;3.17;;
3311;SDS011;1668;49.648;8.570;2023-02-04T12:32:44;7.33;;;2.67;;
3311;SDS011;1668;49.648;8.570;2023-02-04T12:35:11;13.77;;;3.00;;
3311;SDS011;1668;49.648;8.570;2023-02-04T12:37:38;10.57;;;2.60;;
3311;SDS011;1668;49.648;8.570;2023-02-04T12:40:05;7.37;;;3.00;;
3311;SDS011;1668;49.648;8.570;2023-02-04T12:42:33;12.23;;;2.90;;
3311;SDS011;1668;49.648;8.570;2023-02-04T12:45:00;6.17;;;2.70;;
3311;SDS011;1668;49.648;8.570;2023-02-04T12:47:28;12.67;;;2.73;;
3311;SDS011;1668;49.648;8.570;2023-02-04T12:49:55;14.00;;;3.60;;
3311;SDS011;1668;49.648;8.570;2023-02-04T12:52:22;9.83;;;3.27;;
3311;SDS011;1668;49.648;8.570;2023-02-04T12:54:49;10.60;;;3.13;;
3311;SDS011;1668;49.648;8.570;2023-02-04T12:57:15;12.37;;;3.50;;
3311;SDS011;1668;49.648;8.570;2023-02-04T12:59:44;12.50;;;3.50;;
3311;SDS011;1668;49.648;8.570;2023-02-04T13:02:11;11.70;;;3.67;;
3311;SDS011;1668;49.648;8.570;2023-02-04T13:04:39;7.83;;;2.90;;
3311;SDS011;1668;49.648;8.570;2023-02-04T13:07:06;9.87;;;2.73;;
3311;SDS011;1668;49.648;8.570;2023-02-04T13:09:34;12.63;;;2.97;;
3311;SDS011;1668;49.648;8.570;2023-02-04T13:12:01;7.57;;;2.47;;
3311;SDS011;1668;49.648;8.570;2023-02-04T13:14:28;8.97;;;3.57;;
3311;SDS011;1668;49.648;8.570;2023-02-04T13:16:56;7.80;;;2.33;;
3311;SDS011;1668;49.648;8.570;2023-02-04T13:19:23;12.70;;;2.80;;
3311;SDS011;1668;49.648;8.570;2023-02-04T13:21:51;11.93;;;2.40;;
3311;SDS011;1668;49.648;8.570;2023-02-04T13:24:18;10.00;;;2.60;;
3311;SDS011;1668;49.648;8.570;2023-02-04T13:26:45;12.97;;;2.10;;
3311;SDS011;1668;49.648;8.570;2023-02-04T13:29:12;10.70;;;2.40;;
3311;SDS011;1668;49.648;8.570;2023-02-04T13:31:39;10.77;;;2.87;;
3311;SDS011;1668;49.648;8.570;2023-02-04T13:34:06;8.40;;;2.30;;
3311;SDS011;1668;49.648;8.570;2023-02-04T13:36:32;7.47;;;2.90;;
3311;SDS011;1668;49.648;8.570;2023-02-04T13:39:01;12.27;;;2.70;;
3311;SDS011;1668;49.648;8.570;2023-02-04T13:41:27;11.77;;;2.90;;
3311;SDS011;1668;49.648;8.570;2023-02-04T13:43:55;13.37;;;2.87;;
3311;SDS011;1668;49.648;8.570;2023-02-04T13:46:22;13.00;;;3.10;;
3311;SDS011;1668;49.648;8.570;2023-02-04T13:48:49;7.53;;;2.50;;
3311;SDS011;1668;49.648;8.570;2023-02-04T13:51:16;15.70;;;2.50;;
3311;SDS011;1668;49.648;8.570;2023-02-04T13:53:43;12.20;;;2.90;;
3311;SDS011;1668;49.648;8.570;2023-02-04T13:56:11;10.87;;;2.83;;
3311;SDS011;1668;49.648;8.570;2023-02-04T13:58:38;11.23;;;3.80;;
3311;SDS011;1668;49.648;8.570;2023-02-04T14:01:08;10.90;;;3.07;;
3311;SDS011;1668;49.648;8.570;2023-02-04T14:03:35;10.63;;;2.80;;
3311;SDS011;1668;49.648;8.570;2023-02-04T14:06:02;11.93;;;2.50;;
3311;SDS011;1668;49.648;8.570;2023-02-04T14:08:29;10.00;;;2.87;;
3311;SDS011;1668;49.648;8.570;2023-02-04T14:10:56;10.43;;;2.50;;
3311;SDS011;1668;49.648;8.570;2023-02-04T14:13:25;9.33;;;2.57;;
3311;SDS011;1668;49.648;8.570;2023-02-04T14:15:52;9.10;;;2.93;;
3311;SDS011;1668;49.648;8.570;2023-02-04T14:18:18;16.87;;;3.73;;
3311;SDS011;1668;49.648;8.570;2023-02-04T14:20:46;11.40;;;3.60;;
3311;SDS011;1668;49.648;8.570;2023-02-04T14:23:12;11.83;;;3.70;;
3311;SDS011;1668;49.648;8.570;2023-02-04T14:25:39;12.07;;;2.40;;
3311;SDS011;1668;49.648;8.570;2023-02-04T14:28:06;8.23;;;2.20;;
3311;SDS011;1668;49.648;8.570;2023-02-04T14:30:35;12.67;;;3.00;;
3311;SDS011;1668;49.648;8.570;2023-02-04T14:33:02;9.40;;;2.47;;
3311;SDS011;1668;49.648;8.570;2023-02-04T14:35:46;10.20;;;2.20;;
3311;SDS011;1668;49.648;8.570;2023-02-04T14:38:13;8.90;;;2.67;;
3311;SDS011;1668;49.648;8.570;2023-02-04T14:40:40;5.13;;;1.57;;
3311;SDS011;1668;49.648;8.570;2023-02-04T14:43:11;9.13;;;2.40;;
3311;SDS011;1668;49.648;8.570;2023-02-04T14:48:57;9.30;;;2.27;;
3311;SDS011;1668;49.648;8.570;2023-02-04T14:51:40;11.23;;;2.33;;
3311;SDS011;1668;49.648;8.570;2023-02-04T14:54:08;16.20;;;2.73;;
3311;SDS011;1668;49.648;8.570;2023-02-04T14:56:35;8.47;;;2.03;;
3311;SDS011;1668;49.648;8.570;2023-02-04T14:59:06;9.20;;;2.10;;
3311;SDS011;1668;49.648;8.570;2023-02-04T15:01:35;10.63;;;2.53;;
3311;SDS011;1668;49.648;8.570;2023-02-04T15:04:02;8.20;;;2.30;;
3311;SDS011;1668;49.648;8.570;2023-02-04T15:06:29;8.40;;;2.30;;
3311;SDS011;1668;49.648;8.570;2023-02-04T15:08:56;7.07;;;2.60;;
3311;SDS011;1668;49.648;8.570;2023-02-04T15:11:23;9.37;;;2.17;;
3311;SDS011;1668;49.648;8.570;2023-02-04T15:13:50;10.13;;;4.50;;